Time;durP1;ratioP1;P1;durP2;ratioP2;P2;SDS_P1;SDS_P2;PMS_P1;PMS_P2;Temp;Humidity;BMP_temperature;BMP_pressure;BME280_temperature;BME280_humidity;BME280_pressure;Samples;Min_cycle;Max_cycle;Signal;HPM_P1;HPM_P2
2024/02/29 00:01:37;;;;;;;16.85;6.53;;;;;;;;;;4958888;28;20075;-78
2024/02/29 00:04:03;;;;;;;15.32;6.40;;;;;;;;;;4957581;28;20376;-78
2024/02/29 00:06:28;;;;;;;16.17;6.93;;;;;;;;;;4953837;28;20053;-79
2024/02/29 00:08:53;;;;;;;20.95;7.13;;;;;;;;;;4965827;28;20045;-78
2024/02/29 00:11:21;;;;;;;16.77;7.00;;;;;;;;;;4965405;28;20495;-79
2024/02/29 00:13:46;;;;;;;15.45;6.00;;;;;;;;;;4960798;28;20527;-78
2024/02/29 00:16:12;;;;;;;13.57;6.20;;;;;;;;;;4966552;28;20042;-78
2024/02/29 00:18:37;;;;;;;16.55;7.45;;;;;;;;;;4967318;28;20049;-78
2024/02/29 00:21:03;;;;;;;19.05;7.93;;;;;;;;;;4978521;28;20081;-78
2024/02/29 00:23:28;;;;;;;16.40;6.55;;;;;;;;;;4962619;28;20046;-79
2024/02/29 00:25:53;;;;;;;15.38;5.93;;;;;;;;;;4948722;28;20483;-78
2024/02/29 00:28:19;;;;;;;15.43;7.00;;;;;;;;;;4961274;28;20053;-79
2024/02/29 00:30:44;;;;;;;18.15;7.90;;;;;;;;;;4958086;28;20053;-79
2024/02/29 00:33:10;;;;;;;16.65;6.53;;;;;;;;;;4955682;28;20039;-78
2024/02/29 00:35:35;;;;;;;19.45;7.00;;;;;;;;;;4949618;28;20062;-79
2024/02/29 00:38:00;;;;;;;16.67;6.75;;;;;;;;;;4957562;28;20416;-79
2024/02/29 00:40:26;;;;;;;14.18;5.95;;;;;;;;;;4967642;28;20042;-79
2024/02/29 00:42:51;;;;;;;13.90;6.35;;;;;;;;;;4963305;28;20062;-80
2024/02/29 00:45:17;;;;;;;16.75;7.10;;;;;;;;;;4959444;28;20031;-78
2024/02/29 00:47:42;;;;;;;13.95;6.43;;;;;;;;;;4967496;28;20046;-78
2024/02/29 00:50:08;;;;;;;12.63;5.50;;;;;;;;;;4959581;28;20042;-78
2024/02/29 00:52:33;;;;;;;8.18;3.10;;;;;;;;;;4957889;28;20070;-79
2024/02/29 00:55:01;;;;;;;12.20;5.00;;;;;;;;;;4966359;28;20129;-79
2024/02/29 00:57:27;;;;;;;10.88;4.80;;;;;;;;;;4963219;28;20042;-80
2024/02/29 00:59:52;;;;;;;17.38;6.97;;;;;;;;;;4952279;28;20931;-78
2024/02/29 01:02:18;;;;;;;18.95;8.18;;;;;;;;;;4966321;28;20058;-78
2024/02/29 01:04:43;;;;;;;22.27;9.07;;;;;;;;;;4975415;28;20050;-80
2024/02/29 01:07:08;;;;;;;6.53;3.28;;;;;;;;;;4976674;28;20064;-78
2024/02/29 01:09:34;;;;;;;14.73;6.43;;;;;;;;;;4955173;28;20439;-78
2024/02/29 01:11:59;;;;;;;16.08;6.70;;;;;;;;;;4967643;28;20039;-78
2024/02/29 01:14:26;;;;;;;18.08;6.97;;;;;;;;;;4977626;28;20124;-78
2024/02/29 01:16:53;;;;;;;19.42;7.07;;;;;;;;;;4963795;28;20466;-78
2024/02/29 01:19:19;;;;;;;18.75;7.90;;;;;;;;;;4930743;28;20058;-79
2024/02/29 01:21:44;;;;;;;17.60;7.13;;;;;;;;;;4948012;28;20046;-78
2024/02/29 01:24:10;;;;;;;15.23;6.43;;;;;;;;;;4954192;28;20039;-77
2024/02/29 01:26:35;;;;;;;14.70;6.07;;;;;;;;;;4971980;28;20438;-78
2024/02/29 01:29:00;;;;;;;17.90;7.80;;;;;;;;;;4957818;28;20114;-77
2024/02/29 01:31:26;;;;;;;19.20;7.15;;;;;;;;;;4959227;28;20050;-78
2024/02/29 01:33:51;;;;;;;15.10;7.18;;;;;;;;;;4947234;28;20042;-78
2024/02/29 01:36:16;;;;;;;21.65;7.95;;;;;;;;;;4963897;28;20030;-77
2024/02/29 01:38:42;;;;;;;13.20;6.38;;;;;;;;;;4957757;28;20585;-77
2024/02/29 01:41:07;;;;;;;20.10;8.20;;;;;;;;;;4948398;28;20031;-79
2024/02/29 01:43:33;;;;;;;18.85;7.32;;;;;;;;;;4950786;28;20065;-79
2024/02/29 01:46:12;;;;;;;15.05;6.57;;;;;;;;;;4961509;28;20199;-78
2024/02/29 01:48:38;;;;;;;17.80;7.70;;;;;;;;;;4972052;28;20034;-78
2024/02/29 01:51:04;;;;;;;19.65;8.07;;;;;;;;;;4946730;28;20046;-78
2024/02/29 01:53:30;;;;;;;16.42;6.78;;;;;;;;;;4955293;28;20126;-79
2024/02/29 01:55:55;;;;;;;16.85;6.97;;;;;;;;;;4973229;28;20128;-78
2024/02/29 01:58:21;;;;;;;16.63;6.75;;;;;;;;;;4959784;28;20195;-78
2024/02/29 02:00:46;;;;;;;19.30;7.78;;;;;;;;;;4961827;28;20822;-78
2024/02/29 02:03:12;;;;;;;18.25;6.95;;;;;;;;;;4952670;28;20038;-78
2024/02/29 02:05:37;;;;;;;22.15;9.32;;;;;;;;;;4936583;28;20042;-78
2024/02/29 02:08:03;;;;;;;24.65;8.73;;;;;;;;;;4963683;28;20434;-78
2024/02/29 02:10:29;;;;;;;10.77;4.72;;;;;;;;;;4976591;28;20108;-78
2024/02/29 02:12:54;;;;;;;18.58;7.75;;;;;;;;;;4956052;28;20039;-79
2024/02/29 02:15:20;;;;;;;26.48;10.02;;;;;;;;;;4931756;28;20038;-77
2024/02/29 02:17:50;;;;;;;21.33;8.30;;;;;;;;;;4949326;28;20532;-78
2024/02/29 02:20:18;;;;;;;25.08;9.60;;;;;;;;;;4971626;28;20084;-76
2024/02/29 02:22:44;;;;;;;14.20;5.68;;;;;;;;;;4952804;28;20593;-78
2024/02/29 02:25:09;;;;;;;13.25;5.25;;;;;;;;;;4926844;28;20205;-78
2024/02/29 02:27:37;;;;;;;24.67;9.68;;;;;;;;;;4959192;28;20059;-78
2024/02/29 02:30:06;;;;;;;28.30;10.13;;;;;;;;;;4944127;28;20089;-78
2024/02/29 02:32:35;;;;;;;26.05;8.98;;;;;;;;;;4942829;28;20044;-78
2024/02/29 02:35:06;;;;;;;20.92;7.78;;;;;;;;;;4950590;28;20066;-78
2024/02/29 02:37:36;;;;;;;;;;;;;;;;;;4947820;28;20047;-79
2024/02/29 02:40:04;;;;;;;21.52;7.88;;;;;;;;;;4937135;28;19918;-78
2024/02/29 02:42:30;;;;;;;17.13;8.35;;;;;;;;;;4978419;28;20652;-78
2024/02/29 02:44:56;;;;;;;17.58;8.20;;;;;;;;;;4964534;28;20038;-79
2024/02/29 02:47:21;;;;;;;23.40;8.98;;;;;;;;;;4961438;28;20047;-79
2024/02/29 02:49:47;;;;;;;19.80;9.57;;;;;;;;;;4945929;28;20046;-78
2024/02/29 02:52:12;;;;;;;22.42;9.20;;;;;;;;;;4956092;28;20518;-79
2024/02/29 02:54:37;;;;;;;25.05;8.95;;;;;;;;;;4977578;28;20042;-78
2024/02/29 02:57:03;;;;;;;20.45;9.25;;;;;;;;;;4956712;28;20042;-78
2024/02/29 02:59:28;;;;;;;20.13;9.13;;;;;;;;;;4929215;28;20058;-78
2024/02/29 03:01:54;;;;;;;21.17;8.02;;;;;;;;;;4960902;28;20038;-80
2024/02/29 03:04:19;;;;;;;23.85;9.63;;;;;;;;;;4959422;28;20042;-82
2024/02/29 03:06:44;;;;;;;22.55;9.30;;;;;;;;;;4977827;28;20658;-80
2024/02/29 03:09:11;;;;;;;21.20;8.60;;;;;;;;;;4965400;28;20031;-77
2024/02/29 03:11:37;;;;;;;18.90;7.28;;;;;;;;;;4956135;28;20060;-80
2024/02/29 03:14:02;;;;;;;20.08;8.05;;;;;;;;;;4940781;28;20503;-81
2024/02/29 03:16:28;;;;;;;12.50;4.88;;;;;;;;;;4981372;28;20049;-78
2024/02/29 03:18:53;;;;;;;19.23;9.07;;;;;;;;;;4978290;28;20734;-81
2024/02/29 03:21:19;;;;;;;21.60;8.63;;;;;;;;;;4952838;28;20031;-79
2024/02/29 03:23:44;;;;;;;21.23;8.48;;;;;;;;;;4934275;28;20827;-79
2024/02/29 03:26:09;;;;;;;15.57;7.68;;;;;;;;;;4974310;28;20407;-79
2024/02/29 03:28:35;;;;;;;11.27;5.45;;;;;;;;;;4980362;28;20038;-80
2024/02/29 03:31:00;;;;;;;20.90;7.40;;;;;;;;;;4956805;28;20046;-79
2024/02/29 03:33:26;;;;;;;18.50;7.30;;;;;;;;;;4968070;28;20130;-79
2024/02/29 03:35:52;;;;;;;22.63;8.73;;;;;;;;;;4951041;28;20049;-78
2024/02/29 03:38:18;;;;;;;22.17;8.05;;;;;;;;;;4972753;28;20038;-79
2024/02/29 03:40:44;;;;;;;19.92;7.25;;;;;;;;;;4958677;28;20047;-78
2024/02/29 03:43:10;;;;;;;17.52;7.90;;;;;;;;;;4950994;28;20519;-78
2024/02/29 03:45:35;;;;;;;7.43;3.08;;;;;;;;;;4967411;28;20048;-79
2024/02/29 03:48:01;;;;;;;4.50;2.50;;;;;;;;;;4970286;28;20046;-77
2024/02/29 03:50:27;;;;;;;17.65;6.97;;;;;;;;;;4984314;28;20054;-80
2024/02/29 03:52:52;;;;;;;23.08;9.40;;;;;;;;;;4956327;28;20042;-80
2024/02/29 03:55:18;;;;;;;21.52;7.90;;;;;;;;;;4951822;28;20045;-79
2024/02/29 03:57:44;;;;;;;9.15;3.70;;;;;;;;;;4957092;28;20042;-79
2024/02/29 04:00:11;;;;;;;10.85;4.57;;;;;;;;;;4961320;28;20039;-81
2024/02/29 04:02:37;;;;;;;9.45;4.30;;;;;;;;;;4966663;28;20042;-78
2024/02/29 04:05:07;;;;;;;19.00;7.75;;;;;;;;;;4960059;28;20077;-79
2024/02/29 04:07:37;;;;;;;24.58;8.32;;;;;;;;;;4980021;28;20057;-79
2024/02/29 04:10:03;;;;;;;17.88;7.78;;;;;;;;;;4947958;28;20038;-78
2024/02/29 04:12:30;;;;;;;8.43;4.10;;;;;;;;;;4952036;28;20081;-78
2024/02/29 04:14:55;;;;;;;21.00;7.97;;;;;;;;;;4971716;28;20034;-79
2024/02/29 04:17:20;;;;;;;21.63;8.80;;;;;;;;;;4970880;28;20681;-80
2024/02/29 04:19:46;;;;;;;22.77;7.88;;;;;;;;;;4967751;28;20046;-78
2024/02/29 04:22:13;;;;;;;15.75;7.60;;;;;;;;;;4957481;28;20033;-78
2024/02/29 04:24:39;;;;;;;21.85;9.02;;;;;;;;;;4958653;28;20443;-79
2024/02/29 04:27:04;;;;;;;9.77;3.70;;;;;;;;;;4972392;28;20038;-78
2024/02/29 04:29:29;;;;;;;8.80;4.05;;;;;;;;;;4957962;28;20515;-79
2024/02/29 04:31:55;;;;;;;19.15;7.05;;;;;;;;;;4966586;28;20057;-78
2024/02/29 04:34:20;;;;;;;22.33;8.57;;;;;;;;;;4946896;28;20074;-78
2024/02/29 04:36:46;;;;;;;19.45;8.15;;;;;;;;;;4976945;28;20419;-78
2024/02/29 04:39:11;;;;;;;17.38;7.80;;;;;;;;;;4938749;28;20548;-78
2024/02/29 04:41:36;;;;;;;9.73;4.35;;;;;;;;;;4952181;28;20295;-79
2024/02/29 04:44:02;;;;;;;19.65;8.40;;;;;;;;;;4955759;28;20039;-79
2024/02/29 04:46:27;;;;;;;22.48;8.68;;;;;;;;;;4972749;28;20092;-80
2024/02/29 04:48:52;;;;;;;23.17;9.32;;;;;;;;;;4969893;28;20031;-80
2024/02/29 04:51:18;;;;;;;21.55;9.77;;;;;;;;;;4962402;28;20047;-79
2024/02/29 04:53:43;;;;;;;15.00;6.93;;;;;;;;;;4963762;28;20042;-78
2024/02/29 04:56:09;;;;;;;4.68;2.42;;;;;;;;;;4964963;28;20117;-78
2024/02/29 04:58:35;;;;;;;21.08;7.53;;;;;;;;;;4971625;28;20056;-79
2024/02/29 05:01:01;;;;;;;13.68;5.55;;;;;;;;;;4959186;28;20049;-79
2024/02/29 05:03:27;;;;;;;20.85;9.25;;;;;;;;;;4964036;28;20069;-79
2024/02/29 05:05:52;;;;;;;25.30;10.82;;;;;;;;;;4975375;28;20049;-78
2024/02/29 05:08:18;;;;;;;28.23;10.30;;;;;;;;;;4965440;28;20039;-79
2024/02/29 05:10:43;;;;;;;29.90;10.85;;;;;;;;;;4964149;28;20549;-79
2024/02/29 05:13:09;;;;;;;24.33;10.52;;;;;;;;;;4962435;28;20065;-79
2024/02/29 05:15:35;;;;;;;33.40;11.00;;;;;;;;;;4964982;28;20047;-79
2024/02/29 05:18:02;;;;;;;25.17;9.18;;;;;;;;;;4972082;28;20057;-78
2024/02/29 05:20:28;;;;;;;28.08;10.80;;;;;;;;;;4959814;28;20042;-78
2024/02/29 05:22:54;;;;;;;25.02;9.80;;;;;;;;;;4970321;28;20058;-80
2024/02/29 05:25:20;;;;;;;24.48;8.95;;;;;;;;;;4960950;28;20035;-79
2024/02/29 05:27:46;;;;;;;25.38;9.77;;;;;;;;;;4968838;28;20099;-79
2024/02/29 05:30:12;;;;;;;27.20;9.88;;;;;;;;;;4954977;28;20129;-81
2024/02/29 05:32:37;;;;;;;24.63;10.13;;;;;;;;;;4965089;28;20110;-80
2024/02/29 05:35:03;;;;;;;23.70;8.95;;;;;;;;;;4962758;28;20034;-79
2024/02/29 05:37:29;;;;;;;27.38;9.38;;;;;;;;;;4960793;28;20049;-79
2024/02/29 05:39:58;;;;;;;19.52;8.25;;;;;;;;;;4962960;28;20047;-79
2024/02/29 05:42:28;;;;;;;23.35;9.27;;;;;;;;;;4970440;28;20076;-79
2024/02/29 05:44:53;;;;;;;24.95;9.98;;;;;;;;;;4958781;28;20048;-79
2024/02/29 05:47:19;;;;;;;27.88;9.48;;;;;;;;;;4962149;28;20042;-79
2024/02/29 05:49:44;;;;;;;21.67;8.82;;;;;;;;;;4979008;28;20037;-79
2024/02/29 05:52:10;;;;;;;22.98;9.48;;;;;;;;;;4966565;28;20038;-78
2024/02/29 05:54:36;;;;;;;19.05;7.95;;;;;;;;;;4943324;28;20542;-78
2024/02/29 05:57:02;;;;;;;19.73;7.28;;;;;;;;;;4967990;28;20042;-79
2024/02/29 05:59:27;;;;;;;18.23;7.88;;;;;;;;;;4941597;28;20054;-77
2024/02/29 06:01:53;;;;;;;28.80;9.77;;;;;;;;;;4977211;28;20060;-78
2024/02/29 06:04:19;;;;;;;22.50;9.63;;;;;;;;;;4927277;28;20105;-79
2024/02/29 06:06:44;;;;;;;24.63;10.18;;;;;;;;;;4964233;28;20081;-80
2024/02/29 06:09:14;;;;;;;24.42;10.07;;;;;;;;;;4951235;28;20030;-79
2024/02/29 06:11:40;;;;;;;22.80;9.63;;;;;;;;;;4954466;28;20045;-78
2024/02/29 06:14:06;;;;;;;23.00;9.05;;;;;;;;;;4966566;28;20122;-78
2024/02/29 06:16:32;;;;;;;23.02;9.73;;;;;;;;;;4970496;28;20129;-79
2024/02/29 06:18:57;;;;;;;18.67;8.60;;;;;;;;;;4947947;28;20586;-78
2024/02/29 06:21:23;;;;;;;21.52;9.18;;;;;;;;;;4950054;28;20459;-78
2024/02/29 06:23:48;;;;;;;22.88;9.27;;;;;;;;;;4976913;28;20510;-78
2024/02/29 06:26:14;;;;;;;25.85;9.20;;;;;;;;;;4970113;28;20038;-79
2024/02/29 06:28:40;;;;;;;24.42;8.77;;;;;;;;;;4962017;28;20061;-78
2024/02/29 06:31:06;;;;;;;20.35;9.43;;;;;;;;;;4973842;28;20050;-79
2024/02/29 06:33:31;;;;;;;11.63;5.13;;;;;;;;;;4972204;28;20462;-78
2024/02/29 06:35:56;;;;;;;16.02;5.95;;;;;;;;;;4973118;28;20096;-79
2024/02/29 06:38:22;;;;;;;28.25;9.93;;;;;;;;;;4965213;28;20046;-78
2024/02/29 06:40:47;;;;;;;28.75;9.60;;;;;;;;;;4971437;28;20042;-78
2024/02/29 06:43:13;;;;;;;24.88;9.23;;;;;;;;;;4944371;28;20047;-78
2024/02/29 06:45:45;;;;;;;20.55;8.98;;;;;;;;;;4968028;28;20054;-78
2024/02/29 06:48:11;;;;;;;23.67;9.88;;;;;;;;;;4966604;28;20067;-78
2024/02/29 06:50:36;;;;;;;27.08;10.43;;;;;;;;;;4964513;28;20068;-78
2024/02/29 06:53:02;;;;;;;25.73;11.15;;;;;;;;;;4953125;28;20043;-78
2024/02/29 06:55:27;;;;;;;26.15;9.80;;;;;;;;;;4951906;28;20039;-78
2024/02/29 06:57:53;;;;;;;26.00;10.75;;;;;;;;;;4975463;28;20040;-77
2024/02/29 07:00:18;;;;;;;27.33;11.55;;;;;;;;;;4956142;28;20046;-77
2024/02/29 07:02:44;;;;;;;22.10;10.07;;;;;;;;;;4932656;28;20170;-77
2024/02/29 07:05:09;;;;;;;22.83;9.52;;;;;;;;;;4966969;28;20038;-78
2024/02/29 07:07:35;;;;;;;23.45;10.18;;;;;;;;;;4970977;28;20039;-78
2024/02/29 07:10:03;;;;;;;19.38;8.88;;;;;;;;;;4957299;28;20125;-78
2024/02/29 07:12:29;;;;;;;26.70;11.38;;;;;;;;;;4952278;28;20038;-78
2024/02/29 07:14:55;;;;;;;24.38;10.20;;;;;;;;;;4976493;28;20060;-78
2024/02/29 07:17:20;;;;;;;22.15;8.88;;;;;;;;;;4975357;28;20542;-78
2024/02/29 07:19:46;;;;;;;22.35;8.63;;;;;;;;;;4967704;28;20034;-78
2024/02/29 07:22:11;;;;;;;25.42;10.13;;;;;;;;;;4952010;28;20043;-78
2024/02/29 07:24:37;;;;;;;26.65;10.40;;;;;;;;;;4961219;28;20035;-78
2024/02/29 07:27:02;;;;;;;24.15;9.93;;;;;;;;;;4952133;28;20071;-78
2024/02/29 07:29:28;;;;;;;27.40;10.32;;;;;;;;;;4963625;28;20034;-79
2024/02/29 07:31:53;;;;;;;28.55;10.93;;;;;;;;;;4961170;28;20050;-78
2024/02/29 07:34:18;;;;;;;27.60;10.77;;;;;;;;;;4954912;28;20038;-78
2024/02/29 07:36:44;;;;;;;25.60;10.57;;;;;;;;;;4963494;28;20042;-78
2024/02/29 07:39:12;;;;;;;24.45;10.32;;;;;;;;;;4969648;28;20073;-78
2024/02/29 07:41:38;;;;;;;25.08;10.55;;;;;;;;;;4965746;28;20034;-79
2024/02/29 07:44:03;;;;;;;26.35;11.02;;;;;;;;;;4970614;28;20104;-78
2024/02/29 07:46:29;;;;;;;27.45;11.30;;;;;;;;;;4950247;28;20050;-78
2024/02/29 07:48:54;;;;;;;23.17;9.98;;;;;;;;;;4967264;28;20042;-78
2024/02/29 07:51:19;;;;;;;21.35;9.27;;;;;;;;;;4979607;28;20042;-78
2024/02/29 07:53:45;;;;;;;22.92;10.02;;;;;;;;;;4963494;28;20675;-77
2024/02/29 07:56:10;;;;;;;20.23;8.65;;;;;;;;;;4976038;28;20061;-78
2024/02/29 07:58:35;;;;;;;25.08;10.10;;;;;;;;;;4974359;28;20050;-78
2024/02/29 08:01:02;;;;;;;23.20;9.27;;;;;;;;;;4967392;28;20109;-78
2024/02/29 08:03:28;;;;;;;21.95;9.70;;;;;;;;;;4960020;28;20067;-78
2024/02/29 08:05:53;;;;;;;20.38;9.43;;;;;;;;;;4969004;28;20595;-79
2024/02/29 08:08:18;;;;;;;27.50;11.00;;;;;;;;;;4964449;28;20038;-78
2024/02/29 08:10:44;;;;;;;25.98;11.68;;;;;;;;;;4966318;28;20046;-78
2024/02/29 08:13:09;;;;;;;24.38;10.13;;;;;;;;;;4959978;28;20045;-78
2024/02/29 08:15:35;;;;;;;23.20;10.27;;;;;;;;;;4961253;28;20039;-78
2024/02/29 08:18:00;;;;;;;25.80;9.85;;;;;;;;;;4966576;28;20163;-78
2024/02/29 08:20:25;;;;;;;21.00;9.15;;;;;;;;;;4968943;28;20050;-79
2024/02/29 08:22:56;;;;;;;21.98;9.50;;;;;;;;;;4980596;28;20111;-74
2024/02/29 08:25:23;;;;;;;25.30;10.60;;;;;;;;;;4978242;28;20038;-76
2024/02/29 08:27:49;;;;;;;24.40;9.75;;;;;;;;;;4955147;28;20042;-75
2024/02/29 08:30:15;;;;;;;25.45;10.18;;;;;;;;;;4977300;28;20042;-76
2024/02/29 08:32:41;;;;;;;24.92;10.93;;;;;;;;;;4978099;28;20044;-77
2024/02/29 08:35:10;;;;;;;20.40;9.60;;;;;;;;;;4975979;28;20038;-79
2024/02/29 08:37:35;;;;;;;22.73;8.38;;;;;;;;;;4964812;28;20041;-76
2024/02/29 08:40:02;;;;;;;22.98;9.20;;;;;;;;;;4973319;28;20075;-78
2024/02/29 08:42:28;;;;;;;23.80;10.32;;;;;;;;;;4949190;28;20593;-76
2024/02/29 08:44:53;;;;;;;26.67;10.27;;;;;;;;;;4962787;28;20038;-77
2024/02/29 08:47:19;;;;;;;20.73;9.57;;;;;;;;;;4964825;28;20569;-79
2024/02/29 08:49:44;;;;;;;23.95;9.85;;;;;;;;;;4972783;28;20042;-78
2024/02/29 08:52:10;;;;;;;22.45;9.65;;;;;;;;;;4974238;28;20042;-78
2024/02/29 08:54:36;;;;;;;23.17;9.45;;;;;;;;;;4937903;28;20043;-77
2024/02/29 08:57:04;;;;;;;21.80;9.55;;;;;;;;;;4963354;28;20031;-77
2024/02/29 08:59:29;;;;;;;22.98;9.63;;;;;;;;;;4947937;28;20049;-77
2024/02/29 09:01:55;;;;;;;21.17;9.48;;;;;;;;;;4964889;28;20679;-76
2024/02/29 09:04:21;;;;;;;20.48;10.18;;;;;;;;;;4981867;28;20045;-76
2024/02/29 09:06:46;;;;;;;27.20;10.13;;;;;;;;;;4967249;28;20157;-77
2024/02/29 09:09:12;;;;;;;23.23;9.45;;;;;;;;;;4966104;28;20065;-78
2024/02/29 09:11:38;;;;;;;18.73;8.82;;;;;;;;;;4972176;28;20055;-78
2024/02/29 09:14:04;;;;;;;22.83;9.25;;;;;;;;;;4971994;28;20427;-79
2024/02/29 09:16:29;;;;;;;19.60;9.52;;;;;;;;;;4976702;28;20038;-77
2024/02/29 09:18:56;;;;;;;22.05;9.90;;;;;;;;;;4962401;28;20093;-76
2024/02/29 09:21:21;;;;;;;28.38;11.40;;;;;;;;;;4980324;28;20124;-79
2024/02/29 09:23:49;;;;;;;25.33;10.52;;;;;;;;;;4977492;28;20125;-80
2024/02/29 09:26:16;;;;;;;23.42;10.88;;;;;;;;;;4959743;28;20629;-77
2024/02/29 09:28:42;;;;;;;22.02;9.68;;;;;;;;;;4963991;28;20448;-79
2024/02/29 09:31:10;;;;;;;20.30;9.60;;;;;;;;;;4958630;28;20544;-78
2024/02/29 09:33:37;;;;;;;29.83;11.85;;;;;;;;;;4976960;28;20042;-78
2024/02/29 09:36:10;;;;;;;25.60;10.10;;;;;;;;;;4973938;28;20084;-78
2024/02/29 09:38:36;;;;;;;20.08;9.18;;;;;;;;;;4954004;28;20152;-79
2024/02/29 09:41:02;;;;;;;22.13;9.35;;;;;;;;;;4977850;28;20052;-78
2024/02/29 09:43:29;;;;;;;19.52;10.10;;;;;;;;;;4955632;28;20542;-78
2024/02/29 09:45:57;;;;;;;20.00;8.70;;;;;;;;;;4961771;28;20038;-77
2024/02/29 09:48:24;;;;;;;22.17;9.98;;;;;;;;;;4978174;28;20498;-81
2024/02/29 09:50:51;;;;;;;21.50;9.20;;;;;;;;;;4960868;28;20054;-79
2024/02/29 09:53:19;;;;;;;22.98;8.85;;;;;;;;;;4972854;28;20061;-78
2024/02/29 09:55:45;;;;;;;24.17;10.15;;;;;;;;;;4981006;28;20069;-79
2024/02/29 09:58:16;;;;;;;22.88;10.20;;;;;;;;;;4979447;28;20069;-80
2024/02/29 10:00:45;;;;;;;25.40;10.52;;;;;;;;;;4969136;28;20066;-82
2024/02/29 10:03:12;;;;;;;19.67;8.57;;;;;;;;;;4976714;28;20046;-80
2024/02/29 10:05:38;;;;;;;22.30;10.13;;;;;;;;;;4956960;28;20076;-77
2024/02/29 10:08:03;;;;;;;21.33;9.95;;;;;;;;;;4966411;28;20035;-81
2024/02/29 10:10:30;;;;;;;17.38;8.27;;;;;;;;;;4959301;28;20066;-80
2024/02/29 10:12:56;;;;;;;22.58;9.77;;;;;;;;;;4971280;28;20035;-79
2024/02/29 10:15:28;;;;;;;21.92;9.32;;;;;;;;;;4949784;28;20109;-81
2024/02/29 10:17:55;;;;;;;17.40;7.28;;;;;;;;;;4965670;28;20065;-80
2024/02/29 10:20:21;;;;;;;21.70;9.27;;;;;;;;;;4977466;28;20034;-80
2024/02/29 10:22:48;;;;;;;23.30;9.85;;;;;;;;;;4968384;28;20042;-79
2024/02/29 10:25:14;;;;;;;19.17;7.20;;;;;;;;;;4981523;28;20037;-78
2024/02/29 10:27:40;;;;;;;22.02;9.95;;;;;;;;;;4961768;28;20097;-82
2024/02/29 10:30:13;;;;;;;16.55;8.13;;;;;;;;;;4970582;28;20435;-80
2024/02/29 10:32:43;;;;;;;18.30;8.93;;;;;;;;;;4951361;28;20085;-78
2024/02/29 10:35:18;;;;;;;23.65;9.70;;;;;;;;;;4969187;28;20081;-80
2024/02/29 10:37:45;;;;;;;20.77;9.30;;;;;;;;;;4947135;28;20108;-78
2024/02/29 10:40:11;;;;;;;23.20;9.57;;;;;;;;;;4972317;28;20037;-77
2024/02/29 10:42:39;;;;;;;20.83;8.98;;;;;;;;;;4967804;28;20137;-79
2024/02/29 10:45:12;;;;;;;21.75;11.32;;;;;;;;;;4968884;28;20121;-78
2024/02/29 10:47:40;;;;;;;22.58;10.10;;;;;;;;;;4958314;28;20042;-79
2024/02/29 10:50:10;;;;;;;22.50;10.65;;;;;;;;;;4967088;28;20041;-79
2024/02/29 10:52:40;;;;;;;18.33;9.18;;;;;;;;;;4967586;28;20042;-80
2024/02/29 10:55:11;;;;;;;22.45;10.32;;;;;;;;;;4964699;28;20168;-79
2024/02/29 10:57:52;;;;;;;18.60;9.18;;;;;;;;;;4947717;28;20046;-80
2024/02/29 11:00:17;;;;;;;23.58;10.13;;;;;;;;;;4961964;28;20038;-80
2024/02/29 11:02:43;;;;;;;18.15;6.68;;;;;;;;;;4960312;28;20164;-78
2024/02/29 11:05:10;;;;;;;20.42;9.82;;;;;;;;;;4977318;28;20049;-79
2024/02/29 11:07:35;;;;;;;21.75;11.18;;;;;;;;;;4960321;28;20043;-80
2024/02/29 11:10:04;;;;;;;22.33;11.25;;;;;;;;;;4963944;28;20439;-78
2024/02/29 11:12:29;;;;;;;18.80;9.40;;;;;;;;;;4965752;28;20132;-80
2024/02/29 11:14:58;;;;;;;19.20;9.02;;;;;;;;;;4956876;28;20177;-79
2024/02/29 11:17:28;;;;;;;18.88;9.30;;;;;;;;;;4963373;28;20045;-79
2024/02/29 11:19:57;;;;;;;13.63;6.80;;;;;;;;;;4965175;28;20407;-79
2024/02/29 11:22:33;;;;;;;18.67;8.57;;;;;;;;;;4960140;28;20039;-81
2024/02/29 11:24:59;;;;;;;12.18;6.15;;;;;;;;;;4970018;28;20030;-77
2024/02/29 11:27:32;;;;;;;19.63;8.00;;;;;;;;;;4968305;28;20093;-78
2024/02/29 11:30:02;;;;;;;14.98;7.63;;;;;;;;;;4976154;28;20125;-78
2024/02/29 11:32:34;;;;;;;9.77;5.30;;;;;;;;;;4942656;28;21092;-78
2024/02/29 11:35:00;;;;;;;12.15;7.13;;;;;;;;;;4943084;28;20518;-79
2024/02/29 11:37:28;;;;;;;6.00;3.72;;;;;;;;;;4979689;28;20054;-78
2024/02/29 11:40:04;;;;;;;15.50;8.07;;;;;;;;;;4960926;28;20042;-80
2024/02/29 11:42:29;;;;;;;18.33;7.90;;;;;;;;;;4966669;28;20050;-80
2024/02/29 11:44:55;;;;;;;11.35;5.53;;;;;;;;;;4976327;28;20207;-77
2024/02/29 11:47:20;;;;;;;8.05;4.93;;;;;;;;;;4962110;28;20149;-78
2024/02/29 11:49:47;;;;;;;12.85;7.47;;;;;;;;;;4978300;28;20084;-78
2024/02/29 11:52:13;;;;;;;11.80;5.82;;;;;;;;;;4951731;28;20070;-80
2024/02/29 11:54:39;;;;;;;10.60;6.45;;;;;;;;;;4961181;28;20046;-81
2024/02/29 11:57:05;;;;;;;11.95;6.50;;;;;;;;;;4968272;28;20045;-79
2024/02/29 11:59:31;;;;;;;15.63;6.93;;;;;;;;;;4981374;28;20050;-80
2024/02/29 12:01:56;;;;;;;12.20;6.72;;;;;;;;;;4981411;28;20037;-79
2024/02/29 12:04:21;;;;;;;12.48;6.75;;;;;;;;;;4970774;28;20089;-80
2024/02/29 12:06:47;;;;;;;6.70;3.65;;;;;;;;;;4977724;28;20038;-78
2024/02/29 12:09:13;;;;;;;9.77;5.00;;;;;;;;;;4957011;28;20225;-78
2024/02/29 12:11:43;;;;;;;11.15;6.07;;;;;;;;;;4969543;28;20557;-79
2024/02/29 12:14:09;;;;;;;13.38;6.97;;;;;;;;;;4979442;28;20058;-79
2024/02/29 12:16:41;;;;;;;9.52;4.03;;;;;;;;;;4973552;28;20117;-78
2024/02/29 12:19:06;;;;;;;11.10;6.60;;;;;;;;;;4950604;28;20424;-79
2024/02/29 12:21:35;;;;;;;16.13;7.90;;;;;;;;;;4973939;28;20044;-78
2024/02/29 12:24:01;;;;;;;6.93;3.67;;;;;;;;;;4968637;28;20049;-78
2024/02/29 12:26:26;;;;;;;8.45;4.22;;;;;;;;;;4981359;28;20038;-79
2024/02/29 12:28:52;;;;;;;13.77;6.63;;;;;;;;;;4972993;28;20531;-79
2024/02/29 12:31:18;;;;;;;12.50;7.15;;;;;;;;;;4958883;28;20117;-80
2024/02/29 12:33:45;;;;;;;11.93;7.38;;;;;;;;;;4975765;28;20049;-78
2024/02/29 12:36:12;;;;;;;14.25;7.80;;;;;;;;;;4963482;28;20038;-77
2024/02/29 12:38:39;;;;;;;6.63;4.13;;;;;;;;;;4967967;28;20070;-78
2024/02/29 12:41:06;;;;;;;13.55;7.68;;;;;;;;;;4958581;28;20069;-77
2024/02/29 12:43:32;;;;;;;11.88;6.22;;;;;;;;;;4969348;28;20081;-77
2024/02/29 12:45:58;;;;;;;10.52;5.97;;;;;;;;;;4974658;28;20749;-79
2024/02/29 12:48:24;;;;;;;13.75;7.25;;;;;;;;;;4961684;28;20109;-79
2024/02/29 12:50:50;;;;;;;14.20;8.23;;;;;;;;;;4957078;28;20118;-81
2024/02/29 12:53:16;;;;;;;14.38;8.60;;;;;;;;;;4962961;28;20038;-80
2024/02/29 12:55:43;;;;;;;16.42;8.05;;;;;;;;;;4983614;28;20053;-81
2024/02/29 12:58:12;;;;;;;14.18;7.72;;;;;;;;;;4954132;28;20100;-79
2024/02/29 13:00:37;;;;;;;15.77;7.78;;;;;;;;;;4975937;28;20057;-77
2024/02/29 13:03:03;;;;;;;19.27;10.70;;;;;;;;;;4975805;28;20038;-79
2024/02/29 13:05:30;;;;;;;16.00;7.90;;;;;;;;;;4980293;28;20041;-79
2024/02/29 13:07:55;;;;;;;12.05;6.57;;;;;;;;;;4977255;28;20506;-77
2024/02/29 13:10:22;;;;;;;11.98;6.35;;;;;;;;;;4973593;28;20088;-80
2024/02/29 13:12:47;;;;;;;13.50;7.47;;;;;;;;;;4947777;28;20042;-79
2024/02/29 13:15:13;;;;;;;13.90;7.00;;;;;;;;;;4966119;28;20056;-78
2024/02/29 13:17:39;;;;;;;11.70;7.13;;;;;;;;;;4977356;28;20065;-77
2024/02/29 13:20:06;;;;;;;12.20;6.60;;;;;;;;;;4967858;28;20451;-78
2024/02/29 13:22:31;;;;;;;11.40;5.95;;;;;;;;;;4966324;28;20052;-80
2024/02/29 13:24:57;;;;;;;12.02;5.45;;;;;;;;;;4971195;28;20041;-77
2024/02/29 13:27:22;;;;;;;13.68;7.10;;;;;;;;;;4966314;28;20101;-78
2024/02/29 13:29:48;;;;;;;12.57;7.68;;;;;;;;;;4964442;28;20034;-78
2024/02/29 13:32:13;;;;;;;10.90;5.60;;;;;;;;;;4958947;28;20551;-79
2024/02/29 13:34:38;;;;;;;8.05;4.43;;;;;;;;;;4971359;28;20057;-78
2024/02/29 13:37:04;;;;;;;13.10;7.07;;;;;;;;;;4959615;28;20037;-79
2024/02/29 13:39:29;;;;;;;11.80;6.75;;;;;;;;;;4971522;28;20092;-78
2024/02/29 13:41:55;;;;;;;12.60;7.40;;;;;;;;;;4979632;28;20045;-79
2024/02/29 13:44:20;;;;;;;13.32;7.55;;;;;;;;;;4966268;28;20056;-80
2024/02/29 13:46:46;;;;;;;13.27;7.00;;;;;;;;;;4971953;28;20049;-78
2024/02/29 13:49:11;;;;;;;11.82;7.55;;;;;;;;;;4965404;28;20125;-78
2024/02/29 13:51:37;;;;;;;13.68;7.10;;;;;;;;;;4981963;28;20561;-81
2024/02/29 13:54:04;;;;;;;11.00;6.13;;;;;;;;;;4959235;28;20041;-78
2024/02/29 13:56:30;;;;;;;9.32;5.60;;;;;;;;;;4958477;28;20038;-78
2024/02/29 13:58:55;;;;;;;12.30;7.22;;;;;;;;;;4969274;28;20462;-78
2024/02/29 14:01:20;;;;;;;13.00;6.82;;;;;;;;;;4974221;28;20072;-78
2024/02/29 14:03:46;;;;;;;8.38;3.35;;;;;;;;;;4965196;28;20720;-80
2024/02/29 14:06:14;;;;;;;13.55;7.30;;;;;;;;;;4969510;28;20038;-80
2024/02/29 14:08:40;;;;;;;14.63;8.88;;;;;;;;;;4945879;28;20078;-79
2024/02/29 14:11:05;;;;;;;13.68;7.78;;;;;;;;;;4979115;28;20064;-77
2024/02/29 14:13:32;;;;;;;12.73;7.47;;;;;;;;;;4978429;28;20128;-79
2024/02/29 14:15:58;;;;;;;17.02;8.30;;;;;;;;;;4963773;28;20046;-76
2024/02/29 14:18:23;;;;;;;15.63;7.93;;;;;;;;;;4962270;28;20426;-78
2024/02/29 14:20:49;;;;;;;6.75;4.15;;;;;;;;;;4976463;28;20054;-79
2024/02/29 14:23:14;;;;;;;16.02;8.35;;;;;;;;;;4969945;28;20068;-78